Terminal Aerodrome Forecast
Issued by NWS

Home | Current Version | Previous Version | Text Only | Print | Product List | Glossary On
Versions: 1 2 3 4 5 6 7 8 9 10 11 12 13 14 15
249
FTUS43 KIND 122325
TAFHUF
TAF
KHUF 122325Z 1300/1324 31015G23KT P6SM BKN040
     FM130200 33012KT P6SM FEW040
     FM131300 31009KT P6SM FEW250
     FM132100 32006KT P6SM BKN250=

USA.gov is the U.S. government's official web portal to all federal, state and local government web resources and services.